Wolcott, VT

9:27 AM EST on February 11, 2016 (GMT -0500)
N. Wolcott Rd/Rte 15 | | Change Station
CLOSE
Current Station
Personal Weather Station
Location: Wolcott, VT
Elevation: 755 ft
Nearby Weather Stations

Elev 755 ft 44.56 °N, 72.49 °W | Updated 133 days ago

Cloudy
Cloudy
16 °F
Feels Like 4 °F
N
10
Wind Variable Wind from WNW
Gusts 17 mph

Today
High -- | Low -- °F
--% Chance of Precip.
Yesterday
High -- | Low -- °F
Precip. -- in
Pressure 29.73 in
Visibility 4.0 miles
Clouds Mostly Cloudy 3800 ft
Overcast 4900 ft
Windchill 4 °F
Dew Point 2 °F
Humidity 54%
Rainfall in
Snow Depth Not available.
6:56 AM 5:12 PM
Waxing Crescent, 12% visible
METAR KMVL 111354Z AUTO 35005KT 4SM -SN BKN038 OVC049 M08/M12 A2969 RMK AO2 SNB15 SLP066 P0000 T10831122
Pressure 29.73 in
Visibility 4.0 miles
Clouds Mostly Cloudy 3800 ft
Overcast 4900 ft
Windchill 4 °F
Dew Point 2 °F
Humidity 54%
Rainfall in
Snow Depth Not available.
6:56 AM 5:12 PM
Waxing Crescent, 12% visible
METAR KMVL 111354Z AUTO 35005KT 4SM -SN BKN038 OVC049 M08/M12 A2969 RMK AO2 SNB15 SLP066 P0000 T10831122

10-Day Weather Forecast

Almanac

Astronomy

Feb. 11, 2016 Rise Set
Actual Time
Civil Twilight
Nautical Twilight
Astronomical Twilight
Moon
Length of Visible Light
Length of Day
Tomorrow will be .
, % of the Moon is Illuminated

Today's Extremes

State Highs State Lows

Community

WunderPhotos

Upload Photos

1,892,048 photos uploaded!

WunderBlog® & News

Nearby

Air Quality

  Air Quality AQ Index Pollutant
Not available.

Snow Depth

Station Depth Elevation

Earthquake Activity

City Distance Mag. Time & Date
Minimum magnitude displayed is 2.5.

Coastal Water Temperatures

Place Temperature

Stations

Nearby Weather Stations

Station Location Temp. Windchill Dew Point Humidity Wind Precip. Elev Updated Type
                   

Watches & Warnings

There are currently no watches in effect.